sensor_id;sensor_type;location;lat;lon;timestamp;P1;durP1;ratioP1;P2;durP2;ratioP2
13171;SDS011;6651;53.200;10.432;2023-02-12T00:00:36;25.55;;;15.35;;
13171;SDS011;6651;53.200;10.432;2023-02-12T00:03:02;22.88;;;13.57;;
13171;SDS011;6651;53.200;10.432;2023-02-12T00:05:28;19.05;;;12.52;;
13171;SDS011;6651;53.200;10.432;2023-02-12T00:07:54;18.70;;;13.60;;
13171;SDS011;6651;53.200;10.432;2023-02-12T00:10:20;22.30;;;13.23;;
13171;SDS011;6651;53.200;10.432;2023-02-12T00:12:46;17.75;;;13.00;;
13171;SDS011;6651;53.200;10.432;2023-02-12T00:15:12;18.25;;;11.93;;
13171;SDS011;6651;53.200;10.432;2023-02-12T00:17:38;18.85;;;10.55;;
13171;SDS011;6651;53.200;10.432;2023-02-12T00:20:05;13.07;;;8.98;;
13171;SDS011;6651;53.200;10.432;2023-02-12T00:22:31;14.18;;;9.18;;
13171;SDS011;6651;53.200;10.432;2023-02-12T00:24:57;14.40;;;8.82;;
13171;SDS011;6651;53.200;10.432;2023-02-12T00:27:23;13.82;;;9.32;;
13171;SDS011;6651;53.200;10.432;2023-02-12T00:29:49;14.50;;;9.20;;
13171;SDS011;6651;53.200;10.432;2023-02-12T00:32:15;11.27;;;8.68;;
13171;SDS011;6651;53.200;10.432;2023-02-12T00:34:47;13.50;;;9.15;;
13171;SDS011;6651;53.200;10.432;2023-02-12T00:37:13;13.27;;;9.23;;
13171;SDS011;6651;53.200;10.432;2023-02-12T00:39:39;12.73;;;8.63;;
13171;SDS011;6651;53.200;10.432;2023-02-12T00:42:06;12.15;;;9.00;;
13171;SDS011;6651;53.200;10.432;2023-02-12T00:44:32;12.63;;;8.40;;
13171;SDS011;6651;53.200;10.432;2023-02-12T00:46:58;10.70;;;7.93;;
13171;SDS011;6651;53.200;10.432;2023-02-12T00:49:27;11.98;;;8.75;;
13171;SDS011;6651;53.200;10.432;2023-02-12T00:51:53;12.25;;;8.48;;
13171;SDS011;6651;53.200;10.432;2023-02-12T00:54:19;13.20;;;8.18;;
13171;SDS011;6651;53.200;10.432;2023-02-12T00:56:45;12.13;;;8.82;;
13171;SDS011;6651;53.200;10.432;2023-02-12T00:59:11;11.13;;;7.75;;
13171;SDS011;6651;53.200;10.432;2023-02-12T01:01:37;12.32;;;8.00;;
13171;SDS011;6651;53.200;10.432;2023-02-12T01:04:03;10.55;;;7.45;;
13171;SDS011;6651;53.200;10.432;2023-02-12T01:06:29;10.93;;;6.90;;
13171;SDS011;6651;53.200;10.432;2023-02-12T01:08:55;10.38;;;7.20;;
13171;SDS011;6651;53.200;10.432;2023-02-12T01:11:21;9.88;;;6.82;;
13171;SDS011;6651;53.200;10.432;2023-02-12T01:13:47;9.35;;;6.70;;
13171;SDS011;6651;53.200;10.432;2023-02-12T01:16:15;11.15;;;6.35;;
13171;SDS011;6651;53.200;10.432;2023-02-12T01:18:42;12.88;;;6.97;;
13171;SDS011;6651;53.200;10.432;2023-02-12T01:21:09;10.57;;;6.95;;
13171;SDS011;6651;53.200;10.432;2023-02-12T01:23:35;9.63;;;7.50;;
13171;SDS011;6651;53.200;10.432;2023-02-12T01:26:02;9.23;;;6.57;;
13171;SDS011;6651;53.200;10.432;2023-02-12T01:28:28;12.70;;;6.93;;
13171;SDS011;6651;53.200;10.432;2023-02-12T01:30:55;10.45;;;6.90;;
13171;SDS011;6651;53.200;10.432;2023-02-12T01:33:21;11.20;;;6.97;;
13171;SDS011;6651;53.200;10.432;2023-02-12T01:35:47;10.00;;;6.90;;
13171;SDS011;6651;53.200;10.432;2023-02-12T01:38:13;11.27;;;7.13;;
13171;SDS011;6651;53.200;10.432;2023-02-12T01:40:39;8.90;;;6.32;;
13171;SDS011;6651;53.200;10.432;2023-02-12T01:43:05;8.43;;;6.30;;
13171;SDS011;6651;53.200;10.432;2023-02-12T01:48:07;9.20;;;6.28;;
13171;SDS011;6651;53.200;10.432;2023-02-12T01:50:33;10.23;;;6.68;;
13171;SDS011;6651;53.200;10.432;2023-02-12T01:53:00;11.25;;;7.18;;
13171;SDS011;6651;53.200;10.432;2023-02-12T01:55:26;10.40;;;7.10;;
13171;SDS011;6651;53.200;10.432;2023-02-12T01:57:54;9.93;;;6.97;;
13171;SDS011;6651;53.200;10.432;2023-02-12T02:00:21;11.63;;;7.20;;
13171;SDS011;6651;53.200;10.432;2023-02-12T02:02:50;11.30;;;7.25;;
13171;SDS011;6651;53.200;10.432;2023-02-12T02:05:37;10.40;;;7.18;;
13171;SDS011;6651;53.200;10.432;2023-02-12T02:08:05;10.23;;;7.43;;
13171;SDS011;6651;53.200;10.432;2023-02-12T02:10:32;10.50;;;6.90;;
13171;SDS011;6651;53.200;10.432;2023-02-12T02:12:58;9.23;;;6.07;;
13171;SDS011;6651;53.200;10.432;2023-02-12T02:15:44;8.38;;;5.82;;
13171;SDS011;6651;53.200;10.432;2023-02-12T02:18:15;7.95;;;5.68;;
13171;SDS011;6651;53.200;10.432;2023-02-12T02:23:29;8.32;;;5.53;;
13171;SDS011;6651;53.200;10.432;2023-02-12T02:38:44;8.00;;;5.15;;
13171;SDS011;6651;53.200;10.432;2023-02-12T02:41:23;8.85;;;5.35;;
13171;SDS011;6651;53.200;10.432;2023-02-12T02:43:52;7.97;;;5.60;;
13171;SDS011;6651;53.200;10.432;2023-02-12T02:46:26;9.43;;;6.53;;
13171;SDS011;6651;53.200;10.432;2023-02-12T02:48:59;10.75;;;6.40;;
13171;SDS011;6651;53.200;10.432;2023-02-12T02:51:37;8.40;;;6.45;;
13171;SDS011;6651;53.200;10.432;2023-02-12T02:54:12;9.65;;;6.70;;
13171;SDS011;6651;53.200;10.432;2023-02-12T02:56:40;8.57;;;6.32;;
13171;SDS011;6651;53.200;10.432;2023-02-12T02:59:09;9.85;;;6.63;;
13171;SDS011;6651;53.200;10.432;2023-02-12T03:01:39;9.45;;;6.72;;
13171;SDS011;6651;53.200;10.432;2023-02-12T03:04:08;8.00;;;6.15;;
13171;SDS011;6651;53.200;10.432;2023-02-12T03:09:04;8.13;;;5.22;;
13171;SDS011;6651;53.200;10.432;2023-02-12T03:11:34;7.63;;;5.22;;
13171;SDS011;6651;53.200;10.432;2023-02-12T03:14:08;7.68;;;5.82;;
13171;SDS011;6651;53.200;10.432;2023-02-12T03:16:47;7.07;;;5.38;;
13171;SDS011;6651;53.200;10.432;2023-02-12T03:19:17;7.82;;;5.55;;
13171;SDS011;6651;53.200;10.432;2023-02-12T03:21:53;7.82;;;5.40;;
13171;SDS011;6651;53.200;10.432;2023-02-12T03:24:22;8.35;;;5.75;;
13171;SDS011;6651;53.200;10.432;2023-02-12T03:29:41;8.40;;;6.13;;
13171;SDS011;6651;53.200;10.432;2023-02-12T03:35:19;8.23;;;5.75;;
13171;SDS011;6651;53.200;10.432;2023-02-12T03:42:24;8.55;;;5.78;;
13171;SDS011;6651;53.200;10.432;2023-02-12T03:44:52;8.50;;;5.97;;
13171;SDS011;6651;53.200;10.432;2023-02-12T03:52:29;8.68;;;6.03;;
13171;SDS011;6651;53.200;10.432;2023-02-12T03:54:55;9.15;;;6.05;;
13171;SDS011;6651;53.200;10.432;2023-02-12T03:57:23;10.00;;;5.53;;
13171;SDS011;6651;53.200;10.432;2023-02-12T03:59:54;8.02;;;5.53;;
13171;SDS011;6651;53.200;10.432;2023-02-12T04:02:21;8.38;;;5.70;;
13171;SDS011;6651;53.200;10.432;2023-02-12T04:04:47;10.30;;;6.13;;
13171;SDS011;6651;53.200;10.432;2023-02-12T04:07:13;7.90;;;5.72;;
13171;SDS011;6651;53.200;10.432;2023-02-12T04:09:39;8.75;;;5.50;;
13171;SDS011;6651;53.200;10.432;2023-02-12T04:12:08;9.18;;;5.93;;
13171;SDS011;6651;53.200;10.432;2023-02-12T04:14:43;8.27;;;5.55;;
13171;SDS011;6651;53.200;10.432;2023-02-12T04:17:18;8.30;;;5.45;;
13171;SDS011;6651;53.200;10.432;2023-02-12T04:25:06;8.18;;;4.93;;
13171;SDS011;6651;53.200;10.432;2023-02-12T04:27:36;8.57;;;5.70;;
13171;SDS011;6651;53.200;10.432;2023-02-12T04:30:13;8.57;;;5.38;;
13171;SDS011;6651;53.200;10.432;2023-02-12T04:32:49;8.23;;;5.38;;
13171;SDS011;6651;53.200;10.432;2023-02-12T04:35:29;8.10;;;4.93;;
13171;SDS011;6651;53.200;10.432;2023-02-12T04:40:32;7.13;;;5.00;;
13171;SDS011;6651;53.200;10.432;2023-02-12T04:42:59;7.10;;;4.57;;
13171;SDS011;6651;53.200;10.432;2023-02-12T04:45:27;7.65;;;4.70;;
13171;SDS011;6651;53.200;10.432;2023-02-12T04:47:53;7.57;;;5.03;;
13171;SDS011;6651;53.200;10.432;2023-02-12T04:50:19;6.85;;;4.53;;
13171;SDS011;6651;53.200;10.432;2023-02-12T04:52:45;8.15;;;5.00;;
13171;SDS011;6651;53.200;10.432;2023-02-12T04:55:11;8.80;;;4.57;;
13171;SDS011;6651;53.200;10.432;2023-02-12T04:57:37;6.28;;;4.20;;
13171;SDS011;6651;53.200;10.432;2023-02-12T05:00:08;7.22;;;4.53;;
13171;SDS011;6651;53.200;10.432;2023-02-12T05:02:34;5.90;;;4.13;;
13171;SDS011;6651;53.200;10.432;2023-02-12T05:05:00;7.38;;;4.35;;
13171;SDS011;6651;53.200;10.432;2023-02-12T05:07:26;6.90;;;4.03;;
13171;SDS011;6651;53.200;10.432;2023-02-12T05:09:52;9.30;;;4.45;;
13171;SDS011;6651;53.200;10.432;2023-02-12T05:12:18;7.63;;;5.07;;
13171;SDS011;6651;53.200;10.432;2023-02-12T05:14:44;7.03;;;4.75;;
13171;SDS011;6651;53.200;10.432;2023-02-12T05:17:10;7.22;;;5.03;;
13171;SDS011;6651;53.200;10.432;2023-02-12T05:19:36;7.30;;;5.22;;
13171;SDS011;6651;53.200;10.432;2023-02-12T05:22:02;7.25;;;4.78;;
13171;SDS011;6651;53.200;10.432;2023-02-12T05:24:28;7.45;;;5.00;;
13171;SDS011;6651;53.200;10.432;2023-02-12T05:26:54;6.25;;;4.47;;
13171;SDS011;6651;53.200;10.432;2023-02-12T05:29:20;7.00;;;4.88;;
13171;SDS011;6651;53.200;10.432;2023-02-12T05:31:46;6.97;;;5.00;;
13171;SDS011;6651;53.200;10.432;2023-02-12T05:34:12;7.25;;;4.88;;
13171;SDS011;6651;53.200;10.432;2023-02-12T05:36:39;6.15;;;4.45;;
13171;SDS011;6651;53.200;10.432;2023-02-12T05:39:05;7.35;;;5.03;;
13171;SDS011;6651;53.200;10.432;2023-02-12T05:41:31;6.53;;;4.32;;
13171;SDS011;6651;53.200;10.432;2023-02-12T05:44:00;6.43;;;4.45;;
13171;SDS011;6651;53.200;10.432;2023-02-12T05:46:26;6.93;;;4.50;;
13171;SDS011;6651;53.200;10.432;2023-02-12T05:48:52;6.38;;;4.28;;
13171;SDS011;6651;53.200;10.432;2023-02-12T05:51:19;6.43;;;4.30;;
13171;SDS011;6651;53.200;10.432;2023-02-12T05:53:47;6.70;;;4.40;;
13171;SDS011;6651;53.200;10.432;2023-02-12T05:56:14;7.00;;;4.78;;
13171;SDS011;6651;53.200;10.432;2023-02-12T05:58:41;7.45;;;5.20;;
13171;SDS011;6651;53.200;10.432;2023-02-12T06:01:08;7.35;;;4.95;;
13171;SDS011;6651;53.200;10.432;2023-02-12T06:03:35;7.15;;;4.90;;
13171;SDS011;6651;53.200;10.432;2023-02-12T06:06:01;6.25;;;4.55;;
13171;SDS011;6651;53.200;10.432;2023-02-12T06:08:27;7.70;;;5.05;;
13171;SDS011;6651;53.200;10.432;2023-02-12T06:10:53;6.78;;;4.70;;
13171;SDS011;6651;53.200;10.432;2023-02-12T06:13:19;6.80;;;4.53;;
13171;SDS011;6651;53.200;10.432;2023-02-12T06:15:44;7.00;;;4.95;;
13171;SDS011;6651;53.200;10.432;2023-02-12T06:18:10;6.97;;;4.85;;
13171;SDS011;6651;53.200;10.432;2023-02-12T06:20:39;7.03;;;4.43;;
13171;SDS011;6651;53.200;10.432;2023-02-12T06:23:05;6.65;;;4.70;;
13171;SDS011;6651;53.200;10.432;2023-02-12T06:25:31;6.93;;;4.97;;
13171;SDS011;6651;53.200;10.432;2023-02-12T06:27:57;7.82;;;4.85;;
13171;SDS011;6651;53.200;10.432;2023-02-12T06:30:23;7.00;;;4.60;;
13171;SDS011;6651;53.200;10.432;2023-02-12T06:32:49;7.53;;;4.40;;
13171;SDS011;6651;53.200;10.432;2023-02-12T06:35:15;7.45;;;5.22;;
13171;SDS011;6651;53.200;10.432;2023-02-12T06:37:41;7.03;;;4.75;;
13171;SDS011;6651;53.200;10.432;2023-02-12T06:40:08;8.00;;;4.95;;
13171;SDS011;6651;53.200;10.432;2023-02-12T06:42:34;6.35;;;4.78;;
13171;SDS011;6651;53.200;10.432;2023-02-12T06:45:00;6.90;;;4.78;;
13171;SDS011;6651;53.200;10.432;2023-02-12T06:47:27;8.43;;;5.28;;
13171;SDS011;6651;53.200;10.432;2023-02-12T06:49:53;8.57;;;5.05;;
13171;SDS011;6651;53.200;10.432;2023-02-12T06:52:19;8.13;;;5.30;;
13171;SDS011;6651;53.200;10.432;2023-02-12T06:54:46;9.93;;;5.72;;
13171;SDS011;6651;53.200;10.432;2023-02-12T06:57:12;8.80;;;5.75;;
13171;SDS011;6651;53.200;10.432;2023-02-12T06:59:38;8.65;;;4.70;;
13171;SDS011;6651;53.200;10.432;2023-02-12T07:02:04;9.02;;;4.80;;
13171;SDS011;6651;53.200;10.432;2023-02-12T07:04:30;7.40;;;4.97;;
13171;SDS011;6651;53.200;10.432;2023-02-12T07:06:56;7.45;;;5.03;;
13171;SDS011;6651;53.200;10.432;2023-02-12T07:09:22;6.75;;;4.47;;
13171;SDS011;6651;53.200;10.432;2023-02-12T07:11:48;8.85;;;5.25;;
13171;SDS011;6651;53.200;10.432;2023-02-12T07:14:15;8.57;;;5.13;;
13171;SDS011;6651;53.200;10.432;2023-02-12T07:16:41;8.50;;;4.65;;
13171;SDS011;6651;53.200;10.432;2023-02-12T07:19:08;10.07;;;6.40;;
13171;SDS011;6651;53.200;10.432;2023-02-12T07:21:36;11.65;;;7.28;;
13171;SDS011;6651;53.200;10.432;2023-02-12T07:24:02;10.50;;;6.47;;
13171;SDS011;6651;53.200;10.432;2023-02-12T07:26:28;10.05;;;5.95;;
13171;SDS011;6651;53.200;10.432;2023-02-12T07:28:55;10.23;;;5.93;;
13171;SDS011;6651;53.200;10.432;2023-02-12T07:31:22;10.27;;;5.78;;
13171;SDS011;6651;53.200;10.432;2023-02-12T07:33:52;12.27;;;6.65;;
13171;SDS011;6651;53.200;10.432;2023-02-12T07:36:18;14.60;;;7.22;;
13171;SDS011;6651;53.200;10.432;2023-02-12T07:38:44;14.30;;;7.13;;
13171;SDS011;6651;53.200;10.432;2023-02-12T07:41:12;17.02;;;8.18;;
13171;SDS011;6651;53.200;10.432;2023-02-12T07:43:38;15.95;;;8.60;;
13171;SDS011;6651;53.200;10.432;2023-02-12T07:46:06;16.73;;;8.30;;
13171;SDS011;6651;53.200;10.432;2023-02-12T07:48:32;14.45;;;8.02;;
13171;SDS011;6651;53.200;10.432;2023-02-12T07:51:01;18.73;;;8.30;;
13171;SDS011;6651;53.200;10.432;2023-02-12T07:53:27;15.57;;;8.45;;
13171;SDS011;6651;53.200;10.432;2023-02-12T07:55:53;16.80;;;8.25;;
13171;SDS011;6651;53.200;10.432;2023-02-12T07:58:19;17.60;;;9.55;;
13171;SDS011;6651;53.200;10.432;2023-02-12T08:00:45;18.92;;;10.85;;
13171;SDS011;6651;53.200;10.432;2023-02-12T08:03:11;18.83;;;10.07;;
13171;SDS011;6651;53.200;10.432;2023-02-12T08:05:37;17.70;;;9.88;;
13171;SDS011;6651;53.200;10.432;2023-02-12T08:08:03;16.08;;;8.13;;
13171;SDS011;6651;53.200;10.432;2023-02-12T08:10:29;16.60;;;9.07;;
13171;SDS011;6651;53.200;10.432;2023-02-12T08:12:55;16.33;;;9.52;;
13171;SDS011;6651;53.200;10.432;2023-02-12T08:15:21;18.25;;;9.73;;
13171;SDS011;6651;53.200;10.432;2023-02-12T08:17:47;16.20;;;9.05;;
13171;SDS011;6651;53.200;10.432;2023-02-12T08:20:13;17.88;;;9.70;;
13171;SDS011;6651;53.200;10.432;2023-02-12T08:22:39;17.52;;;9.30;;
13171;SDS011;6651;53.200;10.432;2023-02-12T08:25:05;19.25;;;10.18;;
13171;SDS011;6651;53.200;10.432;2023-02-12T08:27:31;16.35;;;9.25;;
13171;SDS011;6651;53.200;10.432;2023-02-12T08:29:57;15.60;;;8.68;;
13171;SDS011;6651;53.200;10.432;2023-02-12T08:32:23;18.83;;;10.27;;
13171;SDS011;6651;53.200;10.432;2023-02-12T08:34:49;15.20;;;9.27;;
13171;SDS011;6651;53.200;10.432;2023-02-12T08:37:15;16.10;;;9.63;;
13171;SDS011;6651;53.200;10.432;2023-02-12T08:39:41;14.93;;;9.25;;
13171;SDS011;6651;53.200;10.432;2023-02-12T08:42:07;14.02;;;8.70;;
13171;SDS011;6651;53.200;10.432;2023-02-12T08:44:34;15.35;;;9.52;;
13171;SDS011;6651;53.200;10.432;2023-02-12T08:47:01;15.70;;;8.95;;
13171;SDS011;6651;53.200;10.432;2023-02-12T08:49:27;14.50;;;9.18;;
13171;SDS011;6651;53.200;10.432;2023-02-12T08:51:55;13.05;;;8.65;;
13171;SDS011;6651;53.200;10.432;2023-02-12T08:54:22;14.00;;;8.35;;
13171;SDS011;6651;53.200;10.432;2023-02-12T08:56:49;15.20;;;9.60;;
13171;SDS011;6651;53.200;10.432;2023-02-12T08:59:15;13.20;;;8.52;;
13171;SDS011;6651;53.200;10.432;2023-02-12T09:01:42;14.40;;;9.05;;
13171;SDS011;6651;53.200;10.432;2023-02-12T09:04:18;14.00;;;9.05;;
13171;SDS011;6651;53.200;10.432;2023-02-12T09:06:45;14.15;;;8.93;;
13171;SDS011;6651;53.200;10.432;2023-02-12T09:09:11;13.45;;;8.85;;
13171;SDS011;6651;53.200;10.432;2023-02-12T09:11:38;14.27;;;9.48;;
13171;SDS011;6651;53.200;10.432;2023-02-12T09:14:04;15.30;;;9.43;;
13171;SDS011;6651;53.200;10.432;2023-02-12T09:16:32;15.30;;;9.07;;
13171;SDS011;6651;53.200;10.432;2023-02-12T09:18:58;13.55;;;8.63;;
13171;SDS011;6651;53.200;10.432;2023-02-12T09:21:25;13.45;;;8.88;;
13171;SDS011;6651;53.200;10.432;2023-02-12T09:23:51;12.98;;;8.82;;
13171;SDS011;6651;53.200;10.432;2023-02-12T09:26:19;14.63;;;9.50;;
13171;SDS011;6651;53.200;10.432;2023-02-12T09:28:46;14.98;;;9.52;;
13171;SDS011;6651;53.200;10.432;2023-02-12T09:31:14;12.95;;;8.55;;
13171;SDS011;6651;53.200;10.432;2023-02-12T09:33:41;14.52;;;9.25;;
13171;SDS011;6651;53.200;10.432;2023-02-12T09:36:08;14.95;;;9.60;;
13171;SDS011;6651;53.200;10.432;2023-02-12T09:38:35;14.85;;;9.88;;
13171;SDS011;6651;53.200;10.432;2023-02-12T09:43:39;14.48;;;10.10;;
13171;SDS011;6651;53.200;10.432;2023-02-12T09:51:27;14.80;;;10.63;;
13171;SDS011;6651;53.200;10.432;2023-02-12T09:54:05;15.23;;;10.45;;
13171;SDS011;6651;53.200;10.432;2023-02-12T09:56:33;14.77;;;10.70;;
13171;SDS011;6651;53.200;10.432;2023-02-12T09:59:00;14.73;;;10.73;;
13171;SDS011;6651;53.200;10.432;2023-02-12T10:01:28;16.33;;;10.73;;
13171;SDS011;6651;53.200;10.432;2023-02-12T10:03:54;15.63;;;10.88;;
13171;SDS011;6651;53.200;10.432;2023-02-12T10:06:21;15.77;;;11.00;;
13171;SDS011;6651;53.200;10.432;2023-02-12T10:19:32;15.02;;;10.60;;
13171;SDS011;6651;53.200;10.432;2023-02-12T10:22:11;12.48;;;9.82;;
13171;SDS011;6651;53.200;10.432;2023-02-12T10:24:42;12.43;;;9.65;;
13171;SDS011;6651;53.200;10.432;2023-02-12T10:27:16;12.63;;;9.40;;
13171;SDS011;6651;53.200;10.432;2023-02-12T10:29:45;12.90;;;10.00;;
13171;SDS011;6651;53.200;10.432;2023-02-12T10:34:44;14.70;;;10.43;;
13171;SDS011;6651;53.200;10.432;2023-02-12T10:37:13;13.82;;;9.85;;
13171;SDS011;6651;53.200;10.432;2023-02-12T10:39:47;14.02;;;9.75;;
13171;SDS011;6651;53.200;10.432;2023-02-12T10:42:25;16.35;;;11.38;;
13171;SDS011;6651;53.200;10.432;2023-02-12T10:44:55;14.57;;;10.15;;
13171;SDS011;6651;53.200;10.432;2023-02-12T10:47:21;15.52;;;9.95;;
13171;SDS011;6651;53.200;10.432;2023-02-12T10:49:51;12.75;;;9.05;;
13171;SDS011;6651;53.200;10.432;2023-02-12T10:54:49;12.50;;;8.68;;
13171;SDS011;6651;53.200;10.432;2023-02-12T10:57:20;12.80;;;8.23;;
13171;SDS011;6651;53.200;10.432;2023-02-12T10:59:47;10.82;;;7.55;;
13171;SDS011;6651;53.200;10.432;2023-02-12T11:02:20;10.32;;;7.15;;
13171;SDS011;6651;53.200;10.432;2023-02-12T11:04:47;11.20;;;8.40;;
13171;SDS011;6651;53.200;10.432;2023-02-12T11:07:13;11.32;;;7.80;;
13171;SDS011;6651;53.200;10.432;2023-02-12T11:09:43;9.98;;;7.90;;
13171;SDS011;6651;53.200;10.432;2023-02-12T11:12:52;9.32;;;6.90;;
13171;SDS011;6651;53.200;10.432;2023-02-12T11:17:32;9.05;;;6.68;;
13171;SDS011;6651;53.200;10.432;2023-02-12T11:22:56;10.98;;;7.22;;
13171;SDS011;6651;53.200;10.432;2023-02-12T11:25:23;11.38;;;7.43;;
13171;SDS011;6651;53.200;10.432;2023-02-12T11:30:25;10.07;;;7.07;;
13171;SDS011;6651;53.200;10.432;2023-02-12T11:32:51;9.57;;;7.43;;
13171;SDS011;6651;53.200;10.432;2023-02-12T11:37:49;11.15;;;7.32;;
13171;SDS011;6651;53.200;10.432;2023-02-12T11:40:20;10.30;;;6.15;;
13171;SDS011;6651;53.200;10.432;2023-02-12T11:43:03;8.25;;;6.30;;
13171;SDS011;6651;53.200;10.432;2023-02-12T11:45:31;7.70;;;5.88;;
13171;SDS011;6651;53.200;10.432;2023-02-12T11:47:58;9.48;;;6.57;;
13171;SDS011;6651;53.200;10.432;2023-02-12T11:52:52;7.57;;;5.22;;
13171;SDS011;6651;53.200;10.432;2023-02-12T11:55:37;6.22;;;4.38;;
13171;SDS011;6651;53.200;10.432;2023-02-12T11:58:15;5.88;;;4.57;;
13171;SDS011;6651;53.200;10.432;2023-02-12T12:08:54;5.43;;;3.85;;
13171;SDS011;6651;53.200;10.432;2023-02-12T12:13:49;6.35;;;4.38;;
13171;SDS011;6651;53.200;10.432;2023-02-12T12:16:22;6.18;;;4.72;;
13171;SDS011;6651;53.200;10.432;2023-02-12T12:19:10;8.50;;;6.22;;
13171;SDS011;6651;53.200;10.432;2023-02-12T12:22:01;8.95;;;6.65;;
13171;SDS011;6651;53.200;10.432;2023-02-12T12:27:05;6.68;;;5.45;;
13171;SDS011;6651;53.200;10.432;2023-02-12T12:29:57;5.97;;;4.60;;
13171;SDS011;6651;53.200;10.432;2023-02-12T12:32:25;5.65;;;4.32;;
13171;SDS011;6651;53.200;10.432;2023-02-12T12:34:54;5.03;;;4.05;;
13171;SDS011;6651;53.200;10.432;2023-02-12T12:42:31;4.82;;;3.78;;
13171;SDS011;6651;53.200;10.432;2023-02-12T12:53:25;5.68;;;4.30;;
13171;SDS011;6651;53.200;10.432;2023-02-12T13:07:12;5.10;;;3.90;;
13171;SDS011;6651;53.200;10.432;2023-02-12T13:17:03;5.82;;;3.78;;
13171;SDS011;6651;53.200;10.432;2023-02-12T13:22:17;5.65;;;4.47;;
13171;SDS011;6651;53.200;10.432;2023-02-12T13:24:48;7.50;;;4.43;;
13171;SDS011;6651;53.200;10.432;2023-02-12T13:27:21;7.07;;;4.50;;
13171;SDS011;6651;53.200;10.432;2023-02-12T13:29:52;6.38;;;4.78;;
13171;SDS011;6651;53.200;10.432;2023-02-12T13:34:45;7.35;;;4.53;;
13171;SDS011;6651;53.200;10.432;2023-02-12T13:37:13;4.50;;;3.47;;
13171;SDS011;6651;53.200;10.432;2023-02-12T13:39:42;5.03;;;4.10;;
13171;SDS011;6651;53.200;10.432;2023-02-12T13:42:22;5.93;;;4.10;;
13171;SDS011;6651;53.200;10.432;2023-02-12T13:45:00;4.15;;;3.58;;
13171;SDS011;6651;53.200;10.432;2023-02-12T13:50:21;8.55;;;6.30;;
13171;SDS011;6651;53.200;10.432;2023-02-12T13:52:47;7.85;;;5.68;;
13171;SDS011;6651;53.200;10.432;2023-02-12T13:57:44;7.43;;;5.70;;
13171;SDS011;6651;53.200;10.432;2023-02-12T14:00:54;6.28;;;5.30;;
13171;SDS011;6651;53.200;10.432;2023-02-12T14:03:08;8.80;;;7.18;;
13171;SDS011;6651;53.200;10.432;2023-02-12T14:05:34;10.43;;;7.82;;
13171;SDS011;6651;53.200;10.432;2023-02-12T14:08:04;9.10;;;6.80;;
13171;SDS011;6651;53.200;10.432;2023-02-12T14:10:35;9.95;;;7.80;;
13171;SDS011;6651;53.200;10.432;2023-02-12T14:15:41;10.10;;;7.13;;
13171;SDS011;6651;53.200;10.432;2023-02-12T14:18:25;8.93;;;7.32;;
13171;SDS011;6651;53.200;10.432;2023-02-12T14:23:40;8.88;;;6.85;;
13171;SDS011;6651;53.200;10.432;2023-02-12T14:26:07;7.72;;;6.63;;
13171;SDS011;6651;53.200;10.432;2023-02-12T14:33:50;9.45;;;7.80;;
13171;SDS011;6651;53.200;10.432;2023-02-12T14:41:21;8.85;;;7.32;;
13171;SDS011;6651;53.200;10.432;2023-02-12T14:46:51;10.18;;;8.15;;
13171;SDS011;6651;53.200;10.432;2023-02-12T14:54:13;12.25;;;9.43;;
13171;SDS011;6651;53.200;10.432;2023-02-12T14:56:42;10.25;;;8.85;;
13171;SDS011;6651;53.200;10.432;2023-02-12T14:59:10;11.57;;;9.25;;
13171;SDS011;6651;53.200;10.432;2023-02-12T15:01:39;10.98;;;8.82;;
13171;SDS011;6651;53.200;10.432;2023-02-12T15:04:10;10.80;;;8.77;;
13171;SDS011;6651;53.200;10.432;2023-02-12T15:06:40;11.75;;;10.00;;
13171;SDS011;6651;53.200;10.432;2023-02-12T15:09:08;12.52;;;10.68;;
13171;SDS011;6651;53.200;10.432;2023-02-12T15:16:44;12.68;;;9.10;;
13171;SDS011;6651;53.200;10.432;2023-02-12T15:21:40;13.32;;;10.25;;
13171;SDS011;6651;53.200;10.432;2023-02-12T15:24:10;12.00;;;9.27;;
13171;SDS011;6651;53.200;10.432;2023-02-12T15:29:06;11.75;;;9.80;;
13171;SDS011;6651;53.200;10.432;2023-02-12T15:31:32;10.75;;;9.38;;
13171;SDS011;6651;53.200;10.432;2023-02-12T15:34:00;10.82;;;8.75;;
13171;SDS011;6651;53.200;10.432;2023-02-12T15:36:27;12.30;;;9.05;;
13171;SDS011;6651;53.200;10.432;2023-02-12T15:39:01;11.05;;;9.27;;
13171;SDS011;6651;53.200;10.432;2023-02-12T15:43:58;9.82;;;8.32;;
13171;SDS011;6651;53.200;10.432;2023-02-12T15:46:24;10.32;;;7.93;;
13171;SDS011;6651;53.200;10.432;2023-02-12T15:48:50;9.23;;;7.43;;
13171;SDS011;6651;53.200;10.432;2023-02-12T15:51:29;9.23;;;7.47;;
13171;SDS011;6651;53.200;10.432;2023-02-12T15:53:58;10.40;;;8.15;;
13171;SDS011;6651;53.200;10.432;2023-02-12T15:56:25;10.02;;;7.93;;
13171;SDS011;6651;53.200;10.432;2023-02-12T15:58:59;10.32;;;7.72;;
13171;SDS011;6651;53.200;10.432;2023-02-12T16:01:33;11.07;;;8.73;;
13171;SDS011;6651;53.200;10.432;2023-02-12T16:04:03;9.57;;;7.97;;
13171;SDS011;6651;53.200;10.432;2023-02-12T16:06:30;10.45;;;8.15;;
13171;SDS011;6651;53.200;10.432;2023-02-12T16:09:00;8.95;;;7.85;;
13171;SDS011;6651;53.200;10.432;2023-02-12T16:11:27;9.95;;;7.45;;
13171;SDS011;6651;53.200;10.432;2023-02-12T16:14:00;9.40;;;7.32;;
13171;SDS011;6651;53.200;10.432;2023-02-12T16:16:39;8.50;;;6.88;;
13171;SDS011;6651;53.200;10.432;2023-02-12T16:19:07;8.25;;;7.07;;
13171;SDS011;6651;53.200;10.432;2023-02-12T16:21:41;8.75;;;7.22;;
13171;SDS011;6651;53.200;10.432;2023-02-12T16:24:21;8.00;;;6.85;;
13171;SDS011;6651;53.200;10.432;2023-02-12T16:26:50;7.57;;;6.25;;
13171;SDS011;6651;53.200;10.432;2023-02-12T16:29:16;8.00;;;5.93;;
13171;SDS011;6651;53.200;10.432;2023-02-12T16:31:56;7.85;;;6.22;;
13171;SDS011;6651;53.200;10.432;2023-02-12T16:34:26;7.35;;;5.72;;
13171;SDS011;6651;53.200;10.432;2023-02-12T16:36:53;7.72;;;5.80;;
13171;SDS011;6651;53.200;10.432;2023-02-12T16:39:49;6.10;;;5.20;;
13171;SDS011;6651;53.200;10.432;2023-02-12T16:42:13;6.75;;;4.93;;
13171;SDS011;6651;53.200;10.432;2023-02-12T16:44:40;6.28;;;4.57;;
13171;SDS011;6651;53.200;10.432;2023-02-12T16:47:12;6.45;;;5.15;;
13171;SDS011;6651;53.200;10.432;2023-02-12T16:49:51;6.40;;;5.15;;
13171;SDS011;6651;53.200;10.432;2023-02-12T16:52:36;6.75;;;5.05;;
13171;SDS011;6651;53.200;10.432;2023-02-12T16:55:04;6.50;;;4.63;;
13171;SDS011;6651;53.200;10.432;2023-02-12T16:57:31;5.18;;;4.15;;
13171;SDS011;6651;53.200;10.432;2023-02-12T16:59:57;7.55;;;4.90;;
13171;SDS011;6651;53.200;10.432;2023-02-12T17:02:23;7.10;;;4.78;;
13171;SDS011;6651;53.200;10.432;2023-02-12T17:04:49;5.80;;;4.97;;
13171;SDS011;6651;53.200;10.432;2023-02-12T17:07:16;7.28;;;4.95;;
13171;SDS011;6651;53.200;10.432;2023-02-12T17:09:43;6.00;;;4.82;;
13171;SDS011;6651;53.200;10.432;2023-02-12T17:12:09;6.95;;;4.95;;
13171;SDS011;6651;53.200;10.432;2023-02-12T17:14:35;6.25;;;4.75;;
13171;SDS011;6651;53.200;10.432;2023-02-12T17:17:01;6.38;;;4.88;;
13171;SDS011;6651;53.200;10.432;2023-02-12T17:19:27;5.47;;;4.80;;
13171;SDS011;6651;53.200;10.432;2023-02-12T17:21:53;6.47;;;4.75;;
13171;SDS011;6651;53.200;10.432;2023-02-12T17:24:20;5.22;;;3.80;;
13171;SDS011;6651;53.200;10.432;2023-02-12T17:26:46;4.78;;;3.83;;
13171;SDS011;6651;53.200;10.432;2023-02-12T17:29:15;4.57;;;3.70;;
13171;SDS011;6651;53.200;10.432;2023-02-12T17:31:41;5.15;;;3.90;;
13171;SDS011;6651;53.200;10.432;2023-02-12T17:34:07;5.82;;;4.20;;
13171;SDS011;6651;53.200;10.432;2023-02-12T17:36:33;4.80;;;3.90;;
13171;SDS011;6651;53.200;10.432;2023-02-12T17:38:59;4.70;;;4.00;;
13171;SDS011;6651;53.200;10.432;2023-02-12T17:41:25;5.07;;;4.18;;